sensor_id;sensor_type;location;lat;lon;timestamp;P1;durP1;ratioP1;P2;durP2;ratioP2
1545;SDS011;766;51.502;9.752;2023-02-15T00:00:17;16.70;;;10.10;;
1545;SDS011;766;51.502;9.752;2023-02-15T00:02:46;17.38;;;9.65;;
1545;SDS011;766;51.502;9.752;2023-02-15T00:05:15;18.95;;;10.48;;
1545;SDS011;766;51.502;9.752;2023-02-15T00:07:45;21.30;;;10.00;;
1545;SDS011;766;51.502;9.752;2023-02-15T00:10:15;19.77;;;9.90;;
1545;SDS011;766;51.502;9.752;2023-02-15T00:12:43;38.75;;;11.77;;
1545;SDS011;766;51.502;9.752;2023-02-15T00:15:12;20.85;;;10.20;;
1545;SDS011;766;51.502;9.752;2023-02-15T00:17:40;18.80;;;10.45;;
1545;SDS011;766;51.502;9.752;2023-02-15T00:20:09;149.43;;;13.73;;
1545;SDS011;766;51.502;9.752;2023-02-15T00:22:38;162.07;;;13.23;;
1545;SDS011;766;51.502;9.752;2023-02-15T00:25:08;77.05;;;12.50;;
1545;SDS011;766;51.502;9.752;2023-02-15T00:27:37;114.13;;;13.77;;
1545;SDS011;766;51.502;9.752;2023-02-15T00:30:06;215.95;;;18.48;;
1545;SDS011;766;51.502;9.752;2023-02-15T00:32:35;144.97;;;14.47;;
1545;SDS011;766;51.502;9.752;2023-02-15T00:35:05;161.45;;;17.00;;
1545;SDS011;766;51.502;9.752;2023-02-15T00:37:33;251.10;;;18.87;;
1545;SDS011;766;51.502;9.752;2023-02-15T00:40:02;60.17;;;12.00;;
1545;SDS011;766;51.502;9.752;2023-02-15T00:42:33;31.67;;;13.00;;
1545;SDS011;766;51.502;9.752;2023-02-15T00:45:01;28.05;;;13.25;;
1545;SDS011;766;51.502;9.752;2023-02-15T00:47:30;18.75;;;11.63;;
1545;SDS011;766;51.502;9.752;2023-02-15T00:49:59;18.00;;;11.15;;
1545;SDS011;766;51.502;9.752;2023-02-15T00:52:29;21.95;;;11.52;;
1545;SDS011;766;51.502;9.752;2023-02-15T00:54:58;16.95;;;10.43;;
1545;SDS011;766;51.502;9.752;2023-02-15T00:57:27;24.02;;;10.85;;
1545;SDS011;766;51.502;9.752;2023-02-15T00:59:56;44.10;;;10.55;;
1545;SDS011;766;51.502;9.752;2023-02-15T01:02:25;18.88;;;10.10;;
1545;SDS011;766;51.502;9.752;2023-02-15T01:04:53;14.73;;;10.10;;
1545;SDS011;766;51.502;9.752;2023-02-15T01:07:22;15.38;;;9.43;;
1545;SDS011;766;51.502;9.752;2023-02-15T01:09:50;16.27;;;9.18;;
1545;SDS011;766;51.502;9.752;2023-02-15T01:12:22;21.33;;;9.23;;
1545;SDS011;766;51.502;9.752;2023-02-15T01:14:50;14.25;;;8.35;;
1545;SDS011;766;51.502;9.752;2023-02-15T01:17:20;15.68;;;8.82;;
1545;SDS011;766;51.502;9.752;2023-02-15T01:19:48;13.15;;;8.63;;
1545;SDS011;766;51.502;9.752;2023-02-15T01:22:17;13.07;;;8.32;;
1545;SDS011;766;51.502;9.752;2023-02-15T01:24:48;13.85;;;8.93;;
1545;SDS011;766;51.502;9.752;2023-02-15T01:27:17;14.38;;;8.50;;
1545;SDS011;766;51.502;9.752;2023-02-15T01:29:46;13.52;;;8.43;;
1545;SDS011;766;51.502;9.752;2023-02-15T01:32:14;18.25;;;9.20;;
1545;SDS011;766;51.502;9.752;2023-02-15T01:34:44;14.40;;;8.00;;
1545;SDS011;766;51.502;9.752;2023-02-15T01:37:13;14.80;;;8.30;;
1545;SDS011;766;51.502;9.752;2023-02-15T01:39:44;16.85;;;8.30;;
1545;SDS011;766;51.502;9.752;2023-02-15T01:42:12;22.08;;;8.80;;
1545;SDS011;766;51.502;9.752;2023-02-15T01:44:48;24.02;;;8.52;;
1545;SDS011;766;51.502;9.752;2023-02-15T01:47:20;15.43;;;8.77;;
1545;SDS011;766;51.502;9.752;2023-02-15T01:49:57;14.30;;;8.55;;
1545;SDS011;766;51.502;9.752;2023-02-15T01:52:29;12.55;;;7.85;;
1545;SDS011;766;51.502;9.752;2023-02-15T01:54:57;14.63;;;8.90;;
1545;SDS011;766;51.502;9.752;2023-02-15T01:57:27;17.15;;;7.72;;
1545;SDS011;766;51.502;9.752;2023-02-15T01:59:58;22.88;;;8.52;;
1545;SDS011;766;51.502;9.752;2023-02-15T02:02:29;20.65;;;9.27;;
1545;SDS011;766;51.502;9.752;2023-02-15T02:05:01;20.70;;;9.02;;
1545;SDS011;766;51.502;9.752;2023-02-15T02:07:36;32.77;;;10.80;;
1545;SDS011;766;51.502;9.752;2023-02-15T02:10:08;18.10;;;9.60;;
1545;SDS011;766;51.502;9.752;2023-02-15T02:12:40;17.65;;;10.02;;
1545;SDS011;766;51.502;9.752;2023-02-15T02:15:11;19.58;;;9.88;;
1545;SDS011;766;51.502;9.752;2023-02-15T02:17:45;26.45;;;10.13;;
1545;SDS011;766;51.502;9.752;2023-02-15T02:20:28;19.35;;;10.52;;
1545;SDS011;766;51.502;9.752;2023-02-15T02:23:23;16.13;;;10.02;;
1545;SDS011;766;51.502;9.752;2023-02-15T02:35:53;46.47;;;9.27;;
1545;SDS011;766;51.502;9.752;2023-02-15T02:38:32;18.30;;;9.50;;
1545;SDS011;766;51.502;9.752;2023-02-15T02:41:13;19.00;;;10.00;;
1545;SDS011;766;51.502;9.752;2023-02-15T02:43:48;23.98;;;9.60;;
1545;SDS011;766;51.502;9.752;2023-02-15T02:46:24;26.73;;;10.38;;
1545;SDS011;766;51.502;9.752;2023-02-15T02:48:57;35.65;;;9.93;;
1545;SDS011;766;51.502;9.752;2023-02-15T02:51:27;57.57;;;10.57;;
1545;SDS011;766;51.502;9.752;2023-02-15T02:53:56;43.90;;;10.65;;
1545;SDS011;766;51.502;9.752;2023-02-15T02:56:29;33.22;;;9.98;;
1545;SDS011;766;51.502;9.752;2023-02-15T02:59:02;23.47;;;10.70;;
1545;SDS011;766;51.502;9.752;2023-02-15T03:01:35;21.50;;;10.43;;
1545;SDS011;766;51.502;9.752;2023-02-15T03:04:07;19.73;;;10.03;;
1545;SDS011;766;51.502;9.752;2023-02-15T03:06:42;18.15;;;9.95;;
1545;SDS011;766;51.502;9.752;2023-02-15T03:09:17;18.50;;;9.65;;
1545;SDS011;766;51.502;9.752;2023-02-15T03:11:49;18.17;;;9.73;;
1545;SDS011;766;51.502;9.752;2023-02-15T03:14:18;14.60;;;9.13;;
1545;SDS011;766;51.502;9.752;2023-02-15T03:16:47;14.73;;;9.07;;
1545;SDS011;766;51.502;9.752;2023-02-15T03:19:19;12.00;;;7.85;;
1545;SDS011;766;51.502;9.752;2023-02-15T03:21:53;14.90;;;8.45;;
1545;SDS011;766;51.502;9.752;2023-02-15T03:24:32;12.88;;;7.90;;
1545;SDS011;766;51.502;9.752;2023-02-15T03:27:03;15.25;;;9.35;;
1545;SDS011;766;51.502;9.752;2023-02-15T03:29:34;16.13;;;8.73;;
1545;SDS011;766;51.502;9.752;2023-02-15T03:32:07;14.82;;;8.68;;
1545;SDS011;766;51.502;9.752;2023-02-15T03:34:38;15.57;;;8.55;;
1545;SDS011;766;51.502;9.752;2023-02-15T03:37:10;17.77;;;9.75;;
1545;SDS011;766;51.502;9.752;2023-02-15T03:39:47;14.52;;;8.43;;
1545;SDS011;766;51.502;9.752;2023-02-15T03:42:22;14.27;;;7.75;;
1545;SDS011;766;51.502;9.752;2023-02-15T03:44:54;20.67;;;9.25;;
1545;SDS011;766;51.502;9.752;2023-02-15T03:47:28;15.65;;;9.07;;
1545;SDS011;766;51.502;9.752;2023-02-15T03:50:03;17.52;;;8.93;;
1545;SDS011;766;51.502;9.752;2023-02-15T03:52:57;22.92;;;9.70;;
1545;SDS011;766;51.502;9.752;2023-02-15T03:55:28;15.55;;;8.60;;
1545;SDS011;766;51.502;9.752;2023-02-15T03:57:57;16.05;;;9.02;;
1545;SDS011;766;51.502;9.752;2023-02-15T04:00:44;23.88;;;9.75;;
1545;SDS011;766;51.502;9.752;2023-02-15T04:03:31;20.63;;;9.73;;
1545;SDS011;766;51.502;9.752;2023-02-15T04:06:04;20.48;;;8.60;;
1545;SDS011;766;51.502;9.752;2023-02-15T04:08:34;70.27;;;10.70;;
1545;SDS011;766;51.502;9.752;2023-02-15T04:11:23;61.57;;;11.17;;
1545;SDS011;766;51.502;9.752;2023-02-15T04:13:51;53.17;;;11.73;;
1545;SDS011;766;51.502;9.752;2023-02-15T04:16:24;23.60;;;9.97;;
1545;SDS011;766;51.502;9.752;2023-02-15T04:18:54;62.80;;;10.60;;
1545;SDS011;766;51.502;9.752;2023-02-15T04:21:40;40.77;;;10.43;;
1545;SDS011;766;51.502;9.752;2023-02-15T04:24:27;23.50;;;10.07;;
1545;SDS011;766;51.502;9.752;2023-02-15T04:27:14;14.67;;;8.63;;
1545;SDS011;766;51.502;9.752;2023-02-15T04:29:44;13.80;;;8.40;;
1545;SDS011;766;51.502;9.752;2023-02-15T04:32:12;17.53;;;8.63;;
1545;SDS011;766;51.502;9.752;2023-02-15T04:34:40;21.88;;;8.93;;
1545;SDS011;766;51.502;9.752;2023-02-15T04:37:09;13.05;;;7.72;;
1545;SDS011;766;51.502;9.752;2023-02-15T04:39:39;28.75;;;9.60;;
1545;SDS011;766;51.502;9.752;2023-02-15T04:42:08;13.10;;;7.90;;
1545;SDS011;766;51.502;9.752;2023-02-15T04:44:36;17.10;;;8.98;;
1545;SDS011;766;51.502;9.752;2023-02-15T04:47:04;28.20;;;8.77;;
1545;SDS011;766;51.502;9.752;2023-02-15T04:49:33;19.25;;;8.65;;
1545;SDS011;766;51.502;9.752;2023-02-15T04:52:01;15.45;;;8.30;;
1545;SDS011;766;51.502;9.752;2023-02-15T04:54:30;21.92;;;9.20;;
1545;SDS011;766;51.502;9.752;2023-02-15T04:57:01;14.30;;;8.15;;
1545;SDS011;766;51.502;9.752;2023-02-15T04:59:29;21.33;;;9.05;;
1545;SDS011;766;51.502;9.752;2023-02-15T05:01:59;16.83;;;9.32;;
1545;SDS011;766;51.502;9.752;2023-02-15T05:04:27;18.77;;;9.85;;
1545;SDS011;766;51.502;9.752;2023-02-15T05:06:56;16.05;;;9.25;;
1545;SDS011;766;51.502;9.752;2023-02-15T05:09:25;16.60;;;9.20;;
1545;SDS011;766;51.502;9.752;2023-02-15T05:11:54;15.55;;;8.43;;
1545;SDS011;766;51.502;9.752;2023-02-15T05:14:26;73.53;;;9.82;;
1545;SDS011;766;51.502;9.752;2023-02-15T05:16:55;26.33;;;10.30;;
1545;SDS011;766;51.502;9.752;2023-02-15T05:19:27;64.03;;;10.77;;
1545;SDS011;766;51.502;9.752;2023-02-15T05:21:56;45.03;;;11.40;;
1545;SDS011;766;51.502;9.752;2023-02-15T05:24:24;16.17;;;9.10;;
1545;SDS011;766;51.502;9.752;2023-02-15T05:27:10;17.63;;;9.20;;
1545;SDS011;766;51.502;9.752;2023-02-15T05:29:59;18.57;;;9.60;;
1545;SDS011;766;51.502;9.752;2023-02-15T05:32:30;27.23;;;11.73;;
1545;SDS011;766;51.502;9.752;2023-02-15T05:34:59;24.75;;;10.82;;
1545;SDS011;766;51.502;9.752;2023-02-15T05:37:27;22.55;;;10.45;;
1545;SDS011;766;51.502;9.752;2023-02-15T05:39:56;22.95;;;10.32;;
1545;SDS011;766;51.502;9.752;2023-02-15T05:42:25;19.00;;;9.27;;
1545;SDS011;766;51.502;9.752;2023-02-15T05:44:53;22.70;;;10.53;;
1545;SDS011;766;51.502;9.752;2023-02-15T05:47:24;40.67;;;9.83;;
1545;SDS011;766;51.502;9.752;2023-02-15T05:49:52;19.93;;;10.17;;
1545;SDS011;766;51.502;9.752;2023-02-15T05:52:20;34.60;;;9.83;;
1545;SDS011;766;51.502;9.752;2023-02-15T05:54:49;73.80;;;10.87;;
1545;SDS011;766;51.502;9.752;2023-02-15T05:57:17;33.00;;;10.40;;
1545;SDS011;766;51.502;9.752;2023-02-15T05:59:46;21.00;;;10.97;;
1545;SDS011;766;51.502;9.752;2023-02-15T06:02:14;19.40;;;9.53;;
1545;SDS011;766;51.502;9.752;2023-02-15T06:04:44;23.77;;;10.63;;
1545;SDS011;766;51.502;9.752;2023-02-15T06:07:12;19.63;;;10.40;;
1545;SDS011;766;51.502;9.752;2023-02-15T06:09:43;17.45;;;9.38;;
1545;SDS011;766;51.502;9.752;2023-02-15T06:12:12;34.23;;;10.50;;
1545;SDS011;766;51.502;9.752;2023-02-15T06:14:41;20.50;;;9.60;;
1545;SDS011;766;51.502;9.752;2023-02-15T06:17:12;21.83;;;11.10;;
1545;SDS011;766;51.502;9.752;2023-02-15T06:19:40;24.80;;;13.10;;
1545;SDS011;766;51.502;9.752;2023-02-15T06:22:10;19.52;;;10.27;;
1545;SDS011;766;51.502;9.752;2023-02-15T06:24:40;18.67;;;10.13;;
1545;SDS011;766;51.502;9.752;2023-02-15T06:27:09;16.97;;;8.87;;
1545;SDS011;766;51.502;9.752;2023-02-15T06:29:39;13.50;;;8.50;;
1545;SDS011;766;51.502;9.752;2023-02-15T06:32:08;17.50;;;8.33;;
1545;SDS011;766;51.502;9.752;2023-02-15T06:34:36;17.50;;;9.07;;
1545;SDS011;766;51.502;9.752;2023-02-15T06:37:04;17.57;;;9.13;;
1545;SDS011;766;51.502;9.752;2023-02-15T06:39:36;15.47;;;8.67;;
1545;SDS011;766;51.502;9.752;2023-02-15T06:42:04;16.80;;;8.95;;
1545;SDS011;766;51.502;9.752;2023-02-15T06:44:33;19.08;;;10.10;;
1545;SDS011;766;51.502;9.752;2023-02-15T06:47:01;16.13;;;9.20;;
1545;SDS011;766;51.502;9.752;2023-02-15T06:49:33;18.07;;;9.33;;
1545;SDS011;766;51.502;9.752;2023-02-15T06:52:01;17.52;;;8.70;;
1545;SDS011;766;51.502;9.752;2023-02-15T06:54:30;21.27;;;9.33;;
1545;SDS011;766;51.502;9.752;2023-02-15T06:56:59;16.57;;;9.13;;
1545;SDS011;766;51.502;9.752;2023-02-15T06:59:28;17.90;;;9.48;;
1545;SDS011;766;51.502;9.752;2023-02-15T07:01:56;19.97;;;8.87;;
1545;SDS011;766;51.502;9.752;2023-02-15T07:04:25;15.70;;;8.20;;
1545;SDS011;766;51.502;9.752;2023-02-15T07:06:55;16.20;;;9.27;;
1545;SDS011;766;51.502;9.752;2023-02-15T07:09:23;15.43;;;8.18;;
1545;SDS011;766;51.502;9.752;2023-02-15T07:11:52;15.20;;;8.30;;
1545;SDS011;766;51.502;9.752;2023-02-15T07:14:39;14.27;;;8.17;;
1545;SDS011;766;51.502;9.752;2023-02-15T07:17:07;15.63;;;8.27;;
1545;SDS011;766;51.502;9.752;2023-02-15T07:19:56;15.70;;;8.40;;
1545;SDS011;766;51.502;9.752;2023-02-15T07:22:24;12.57;;;7.40;;
1545;SDS011;766;51.502;9.752;2023-02-15T07:24:53;14.30;;;7.70;;
1545;SDS011;766;51.502;9.752;2023-02-15T07:27:22;13.93;;;7.47;;
1545;SDS011;766;51.502;9.752;2023-02-15T07:29:52;11.30;;;6.72;;
1545;SDS011;766;51.502;9.752;2023-02-15T07:32:21;11.70;;;7.47;;
1545;SDS011;766;51.502;9.752;2023-02-15T07:34:50;13.10;;;7.80;;
1545;SDS011;766;51.502;9.752;2023-02-15T07:37:18;12.40;;;7.63;;
1545;SDS011;766;51.502;9.752;2023-02-15T07:39:47;14.88;;;7.53;;
1545;SDS011;766;51.502;9.752;2023-02-15T07:42:16;12.02;;;7.15;;
1545;SDS011;766;51.502;9.752;2023-02-15T07:44:46;11.93;;;6.80;;
1545;SDS011;766;51.502;9.752;2023-02-15T07:47:16;13.95;;;6.93;;
1545;SDS011;766;51.502;9.752;2023-02-15T07:49:45;13.23;;;7.47;;
1545;SDS011;766;51.502;9.752;2023-02-15T07:52:15;11.57;;;7.32;;
1545;SDS011;766;51.502;9.752;2023-02-15T07:54:47;11.65;;;7.22;;
1545;SDS011;766;51.502;9.752;2023-02-15T07:57:15;11.90;;;7.28;;
1545;SDS011;766;51.502;9.752;2023-02-15T07:59:43;13.00;;;7.78;;
1545;SDS011;766;51.502;9.752;2023-02-15T08:02:12;11.20;;;7.22;;
1545;SDS011;766;51.502;9.752;2023-02-15T08:04:45;14.00;;;8.37;;
1545;SDS011;766;51.502;9.752;2023-02-15T08:07:13;12.20;;;7.63;;
1545;SDS011;766;51.502;9.752;2023-02-15T08:09:42;15.30;;;8.80;;
1545;SDS011;766;51.502;9.752;2023-02-15T08:12:10;15.55;;;9.07;;
1545;SDS011;766;51.502;9.752;2023-02-15T08:14:39;24.40;;;9.60;;
1545;SDS011;766;51.502;9.752;2023-02-15T08:17:07;28.33;;;10.07;;
1545;SDS011;766;51.502;9.752;2023-02-15T08:19:36;18.80;;;10.98;;
1545;SDS011;766;51.502;9.752;2023-02-15T08:22:07;18.02;;;10.18;;
1545;SDS011;766;51.502;9.752;2023-02-15T08:24:40;19.20;;;10.93;;
1545;SDS011;766;51.502;9.752;2023-02-15T08:27:09;18.75;;;9.85;;
1545;SDS011;766;51.502;9.752;2023-02-15T08:29:38;20.05;;;10.98;;
1545;SDS011;766;51.502;9.752;2023-02-15T08:32:09;18.75;;;10.45;;
1545;SDS011;766;51.502;9.752;2023-02-15T08:34:38;17.98;;;9.63;;
1545;SDS011;766;51.502;9.752;2023-02-15T08:37:10;18.20;;;10.17;;
1545;SDS011;766;51.502;9.752;2023-02-15T08:39:38;17.83;;;10.23;;
1545;SDS011;766;51.502;9.752;2023-02-15T08:42:08;17.80;;;10.30;;
1545;SDS011;766;51.502;9.752;2023-02-15T08:44:37;18.43;;;10.57;;
1545;SDS011;766;51.502;9.752;2023-02-15T08:47:06;18.07;;;9.70;;
1545;SDS011;766;51.502;9.752;2023-02-15T08:49:35;19.70;;;10.75;;
1545;SDS011;766;51.502;9.752;2023-02-15T08:52:04;22.47;;;11.70;;
1545;SDS011;766;51.502;9.752;2023-02-15T08:54:34;21.40;;;10.83;;
1545;SDS011;766;51.502;9.752;2023-02-15T08:57:02;19.53;;;10.73;;
1545;SDS011;766;51.502;9.752;2023-02-15T08:59:31;20.13;;;11.00;;
1545;SDS011;766;51.502;9.752;2023-02-15T09:02:02;21.00;;;10.50;;
1545;SDS011;766;51.502;9.752;2023-02-15T09:04:31;16.87;;;9.87;;
1545;SDS011;766;51.502;9.752;2023-02-15T09:06:59;20.65;;;11.35;;
1545;SDS011;766;51.502;9.752;2023-02-15T09:09:30;17.88;;;10.55;;
1545;SDS011;766;51.502;9.752;2023-02-15T09:12:00;16.13;;;9.95;;
1545;SDS011;766;51.502;9.752;2023-02-15T09:14:30;16.85;;;9.50;;
1545;SDS011;766;51.502;9.752;2023-02-15T09:16:58;14.65;;;8.80;;
1545;SDS011;766;51.502;9.752;2023-02-15T09:19:27;16.02;;;9.63;;
1545;SDS011;766;51.502;9.752;2023-02-15T09:21:56;15.02;;;9.07;;
1545;SDS011;766;51.502;9.752;2023-02-15T09:24:25;14.90;;;9.00;;
1545;SDS011;766;51.502;9.752;2023-02-15T09:26:53;15.27;;;9.70;;
1545;SDS011;766;51.502;9.752;2023-02-15T09:29:23;14.57;;;9.23;;
1545;SDS011;766;51.502;9.752;2023-02-15T09:31:53;16.35;;;10.07;;
1545;SDS011;766;51.502;9.752;2023-02-15T09:34:22;16.13;;;10.07;;
1545;SDS011;766;51.502;9.752;2023-02-15T09:36:51;14.02;;;9.23;;
1545;SDS011;766;51.502;9.752;2023-02-15T09:39:20;14.75;;;8.77;;
1545;SDS011;766;51.502;9.752;2023-02-15T09:45:12;15.57;;;9.63;;
1545;SDS011;766;51.502;9.752;2023-02-15T09:47:53;14.25;;;8.80;;
1545;SDS011;766;51.502;9.752;2023-02-15T09:50:50;15.38;;;9.70;;
1545;SDS011;766;51.502;9.752;2023-02-15T09:53:30;15.65;;;9.15;;
1545;SDS011;766;51.502;9.752;2023-02-15T09:56:19;16.08;;;9.25;;
1545;SDS011;766;51.502;9.752;2023-02-15T09:58:58;16.48;;;9.40;;
1545;SDS011;766;51.502;9.752;2023-02-15T10:01:35;16.05;;;9.30;;
1545;SDS011;766;51.502;9.752;2023-02-15T10:07:08;17.88;;;10.02;;
1545;SDS011;766;51.502;9.752;2023-02-15T10:09:48;15.18;;;9.35;;
1545;SDS011;766;51.502;9.752;2023-02-15T10:12:32;17.80;;;10.13;;
1545;SDS011;766;51.502;9.752;2023-02-15T10:15:24;16.27;;;9.30;;
1545;SDS011;766;51.502;9.752;2023-02-15T10:18:09;15.93;;;9.38;;
1545;SDS011;766;51.502;9.752;2023-02-15T10:21:00;15.35;;;9.68;;
1545;SDS011;766;51.502;9.752;2023-02-15T10:23:50;14.32;;;9.00;;
1545;SDS011;766;51.502;9.752;2023-02-15T10:26:31;15.77;;;9.60;;
1545;SDS011;766;51.502;9.752;2023-02-15T10:29:09;14.30;;;8.27;;
1545;SDS011;766;51.502;9.752;2023-02-15T10:31:47;14.30;;;9.20;;
1545;SDS011;766;51.502;9.752;2023-02-15T10:34:19;16.73;;;10.32;;
1545;SDS011;766;51.502;9.752;2023-02-15T10:39:53;14.82;;;9.23;;
1545;SDS011;766;51.502;9.752;2023-02-15T10:42:34;15.27;;;9.45;;
1545;SDS011;766;51.502;9.752;2023-02-15T10:45:13;14.43;;;9.27;;
1545;SDS011;766;51.502;9.752;2023-02-15T10:47:52;13.75;;;8.55;;
1545;SDS011;766;51.502;9.752;2023-02-15T10:50:46;16.13;;;9.27;;
1545;SDS011;766;51.502;9.752;2023-02-15T10:53:20;13.68;;;8.55;;
1545;SDS011;766;51.502;9.752;2023-02-15T10:56:10;14.15;;;8.73;;
1545;SDS011;766;51.502;9.752;2023-02-15T10:58:50;17.27;;;10.00;;
1545;SDS011;766;51.502;9.752;2023-02-15T11:01:29;16.67;;;9.18;;
1545;SDS011;766;51.502;9.752;2023-02-15T11:07:08;14.85;;;9.07;;
1545;SDS011;766;51.502;9.752;2023-02-15T11:09:46;16.52;;;10.07;;
1545;SDS011;766;51.502;9.752;2023-02-15T11:12:19;16.70;;;9.45;;
1545;SDS011;766;51.502;9.752;2023-02-15T11:14:55;16.45;;;9.48;;
1545;SDS011;766;51.502;9.752;2023-02-15T11:17:30;14.20;;;9.05;;
1545;SDS011;766;51.502;9.752;2023-02-15T11:20:08;16.08;;;10.10;;
1545;SDS011;766;51.502;9.752;2023-02-15T11:22:48;14.45;;;9.02;;
1545;SDS011;766;51.502;9.752;2023-02-15T11:25:22;14.50;;;9.38;;
1545;SDS011;766;51.502;9.752;2023-02-15T11:27:53;13.85;;;8.70;;
1545;SDS011;766;51.502;9.752;2023-02-15T11:30:24;14.93;;;8.95;;
1545;SDS011;766;51.502;9.752;2023-02-15T11:32:56;18.83;;;10.82;;
1545;SDS011;766;51.502;9.752;2023-02-15T11:35:29;15.88;;;9.45;;
1545;SDS011;766;51.502;9.752;2023-02-15T11:38:03;15.85;;;9.32;;
1545;SDS011;766;51.502;9.752;2023-02-15T11:40:40;16.75;;;9.50;;
1545;SDS011;766;51.502;9.752;2023-02-15T11:43:16;16.80;;;9.45;;
1545;SDS011;766;51.502;9.752;2023-02-15T11:45:50;15.85;;;9.63;;
1545;SDS011;766;51.502;9.752;2023-02-15T11:48:18;15.63;;;9.50;;
1545;SDS011;766;51.502;9.752;2023-02-15T11:50:47;15.65;;;9.60;;
1545;SDS011;766;51.502;9.752;2023-02-15T11:53:17;15.02;;;8.68;;
1545;SDS011;766;51.502;9.752;2023-02-15T11:55:48;13.85;;;8.85;;
1545;SDS011;766;51.502;9.752;2023-02-15T11:58:22;15.07;;;8.98;;
1545;SDS011;766;51.502;9.752;2023-02-15T12:00:56;13.98;;;8.60;;
1545;SDS011;766;51.502;9.752;2023-02-15T12:03:32;17.30;;;9.88;;
1545;SDS011;766;51.502;9.752;2023-02-15T12:06:14;14.88;;;9.18;;
1545;SDS011;766;51.502;9.752;2023-02-15T12:08:48;15.35;;;9.55;;
1545;SDS011;766;51.502;9.752;2023-02-15T12:11:21;14.57;;;9.00;;
1545;SDS011;766;51.502;9.752;2023-02-15T12:13:55;14.32;;;8.95;;
1545;SDS011;766;51.502;9.752;2023-02-15T12:16:24;12.52;;;8.80;;
1545;SDS011;766;51.502;9.752;2023-02-15T12:18:55;14.82;;;8.80;;
1545;SDS011;766;51.502;9.752;2023-02-15T12:21:25;13.55;;;8.85;;
1545;SDS011;766;51.502;9.752;2023-02-15T12:24:00;14.23;;;9.20;;
1545;SDS011;766;51.502;9.752;2023-02-15T12:26:32;14.93;;;9.55;;
1545;SDS011;766;51.502;9.752;2023-02-15T12:29:06;15.57;;;9.38;;
1545;SDS011;766;51.502;9.752;2023-02-15T12:31:41;11.88;;;8.35;;
1545;SDS011;766;51.502;9.752;2023-02-15T12:34:13;14.57;;;9.55;;
1545;SDS011;766;51.502;9.752;2023-02-15T12:36:51;13.48;;;8.95;;
1545;SDS011;766;51.502;9.752;2023-02-15T12:39:26;13.52;;;8.73;;
1545;SDS011;766;51.502;9.752;2023-02-15T12:41:57;14.50;;;9.40;;
1545;SDS011;766;51.502;9.752;2023-02-15T12:44:29;15.55;;;9.23;;
1545;SDS011;766;51.502;9.752;2023-02-15T12:47:00;14.68;;;9.25;;
1545;SDS011;766;51.502;9.752;2023-02-15T12:49:31;15.52;;;9.93;;
1545;SDS011;766;51.502;9.752;2023-02-15T12:52:01;15.05;;;9.25;;
1545;SDS011;766;51.502;9.752;2023-02-15T12:54:35;16.25;;;9.93;;
1545;SDS011;766;51.502;9.752;2023-02-15T12:57:23;13.00;;;9.00;;
1545;SDS011;766;51.502;9.752;2023-02-15T12:59:55;12.40;;;8.80;;
1545;SDS011;766;51.502;9.752;2023-02-15T13:02:28;15.90;;;9.82;;
1545;SDS011;766;51.502;9.752;2023-02-15T13:05:13;14.27;;;9.18;;
1545;SDS011;766;51.502;9.752;2023-02-15T13:07:48;14.95;;;9.30;;
1545;SDS011;766;51.502;9.752;2023-02-15T13:10:25;12.88;;;9.10;;
1545;SDS011;766;51.502;9.752;2023-02-15T13:12:56;14.75;;;9.73;;
1545;SDS011;766;51.502;9.752;2023-02-15T13:15:26;14.10;;;9.00;;
1545;SDS011;766;51.502;9.752;2023-02-15T13:17:58;14.68;;;9.88;;
1545;SDS011;766;51.502;9.752;2023-02-15T13:20:28;18.92;;;9.90;;
1545;SDS011;766;51.502;9.752;2023-02-15T13:22:58;12.98;;;9.40;;
1545;SDS011;766;51.502;9.752;2023-02-15T13:25:35;12.65;;;8.90;;
1545;SDS011;766;51.502;9.752;2023-02-15T13:28:14;14.48;;;9.68;;
1545;SDS011;766;51.502;9.752;2023-02-15T13:30:45;15.25;;;9.60;;
1545;SDS011;766;51.502;9.752;2023-02-15T13:33:16;13.32;;;8.80;;
1545;SDS011;766;51.502;9.752;2023-02-15T13:35:56;13.10;;;8.82;;
1545;SDS011;766;51.502;9.752;2023-02-15T13:38:44;13.90;;;9.40;;
1545;SDS011;766;51.502;9.752;2023-02-15T13:41:20;11.85;;;8.48;;
1545;SDS011;766;51.502;9.752;2023-02-15T13:43:55;12.50;;;9.15;;
1545;SDS011;766;51.502;9.752;2023-02-15T13:46:37;13.77;;;9.30;;
1545;SDS011;766;51.502;9.752;2023-02-15T13:49:19;12.75;;;9.52;;
1545;SDS011;766;51.502;9.752;2023-02-15T13:52:02;11.25;;;8.90;;
1545;SDS011;766;51.502;9.752;2023-02-15T13:54:43;12.10;;;9.50;;
1545;SDS011;766;51.502;9.752;2023-02-15T13:57:27;12.45;;;9.23;;
1545;SDS011;766;51.502;9.752;2023-02-15T14:00:22;12.95;;;9.38;;
1545;SDS011;766;51.502;9.752;2023-02-15T14:06:14;14.45;;;9.85;;
1545;SDS011;766;51.502;9.752;2023-02-15T14:09:06;12.20;;;9.38;;
1545;SDS011;766;51.502;9.752;2023-02-15T14:11:44;11.40;;;9.13;;
1545;SDS011;766;51.502;9.752;2023-02-15T14:14:28;12.02;;;9.30;;
1545;SDS011;766;51.502;9.752;2023-02-15T14:17:11;13.90;;;9.48;;
1545;SDS011;766;51.502;9.752;2023-02-15T14:19:46;15.20;;;10.05;;
1545;SDS011;766;51.502;9.752;2023-02-15T14:22:18;11.55;;;9.10;;
1545;SDS011;766;51.502;9.752;2023-02-15T14:24:59;11.55;;;8.82;;
1545;SDS011;766;51.502;9.752;2023-02-15T14:27:43;13.27;;;9.38;;
1545;SDS011;766;51.502;9.752;2023-02-15T14:30:21;13.88;;;9.18;;
1545;SDS011;766;51.502;9.752;2023-02-15T14:32:55;14.07;;;9.32;;
1545;SDS011;766;51.502;9.752;2023-02-15T14:35:30;14.23;;;9.73;;
1545;SDS011;766;51.502;9.752;2023-02-15T14:38:00;13.20;;;8.52;;
1545;SDS011;766;51.502;9.752;2023-02-15T14:40:37;14.20;;;9.82;;
1545;SDS011;766;51.502;9.752;2023-02-15T14:43:40;14.27;;;9.68;;
1545;SDS011;766;51.502;9.752;2023-02-15T14:46:18;16.85;;;10.43;;
1545;SDS011;766;51.502;9.752;2023-02-15T14:48:53;18.75;;;10.93;;
1545;SDS011;766;51.502;9.752;2023-02-15T14:57:27;16.30;;;11.07;;
1545;SDS011;766;51.502;9.752;2023-02-15T15:00:03;16.98;;;10.50;;
1545;SDS011;766;51.502;9.752;2023-02-15T15:03:11;16.40;;;10.30;;
1545;SDS011;766;51.502;9.752;2023-02-15T15:05:48;14.90;;;9.45;;
1545;SDS011;766;51.502;9.752;2023-02-15T15:08:21;17.98;;;11.10;;
1545;SDS011;766;51.502;9.752;2023-02-15T15:10:58;18.40;;;11.38;;
1545;SDS011;766;51.502;9.752;2023-02-15T15:14:11;18.80;;;11.13;;
1545;SDS011;766;51.502;9.752;2023-02-15T15:17:10;17.13;;;10.65;;
1545;SDS011;766;51.502;9.752;2023-02-15T15:22:28;16.63;;;11.00;;
1545;SDS011;766;51.502;9.752;2023-02-15T15:24:58;17.25;;;10.55;;
1545;SDS011;766;51.502;9.752;2023-02-15T15:27:44;19.02;;;10.95;;
1545;SDS011;766;51.502;9.752;2023-02-15T15:33:38;17.85;;;10.85;;
1545;SDS011;766;51.502;9.752;2023-02-15T15:36:37;17.63;;;10.88;;
1545;SDS011;766;51.502;9.752;2023-02-15T15:39:39;18.55;;;10.45;;
1545;SDS011;766;51.502;9.752;2023-02-15T15:42:50;17.45;;;10.40;;
1545;SDS011;766;51.502;9.752;2023-02-15T15:45:46;16.63;;;9.73;;
1545;SDS011;766;51.502;9.752;2023-02-15T15:48:37;18.25;;;10.50;;
1545;SDS011;766;51.502;9.752;2023-02-15T15:51:09;17.20;;;10.82;;
1545;SDS011;766;51.502;9.752;2023-02-15T15:53:43;20.02;;;11.80;;
1545;SDS011;766;51.502;9.752;2023-02-15T15:56:16;19.20;;;10.95;;
1545;SDS011;766;51.502;9.752;2023-02-15T15:58:49;21.45;;;11.88;;
1545;SDS011;766;51.502;9.752;2023-02-15T16:01:24;19.08;;;11.43;;
1545;SDS011;766;51.502;9.752;2023-02-15T16:03:55;18.10;;;11.23;;
1545;SDS011;766;51.502;9.752;2023-02-15T16:06:32;21.60;;;12.65;;
1545;SDS011;766;51.502;9.752;2023-02-15T16:09:13;20.83;;;12.27;;
1545;SDS011;766;51.502;9.752;2023-02-15T16:11:46;22.38;;;12.95;;
1545;SDS011;766;51.502;9.752;2023-02-15T16:14:16;21.90;;;12.75;;
1545;SDS011;766;51.502;9.752;2023-02-15T16:16:52;19.50;;;12.02;;
1545;SDS011;766;51.502;9.752;2023-02-15T16:19:26;23.52;;;13.10;;
1545;SDS011;766;51.502;9.752;2023-02-15T16:21:57;22.63;;;11.85;;
1545;SDS011;766;51.502;9.752;2023-02-15T16:24:36;19.83;;;11.75;;
1545;SDS011;766;51.502;9.752;2023-02-15T16:27:14;24.60;;;13.40;;